createdAt,value
2022-10-31T00:00:19.655Z,10.26
2022-10-31T00:03:21.389Z,10.28
2022-10-31T00:06:23.691Z,10.29
2022-10-31T00:09:25.245Z,10.28
2022-10-31T00:12:27.755Z,10.29
2022-10-31T00:15:29.239Z,10.17
2022-10-31T00:18:31.095Z,10.11
2022-10-31T00:21:33.464Z,10.11
2022-10-31T00:24:35.068Z,10.16
2022-10-31T00:27:36.585Z,10.18
2022-10-31T00:30:38.137Z,10.16
2022-10-31T00:33:40.830Z,10.12
2022-10-31T00:36:42.359Z,10.08
2022-10-31T00:39:49.935Z,10.09
2022-10-31T00:42:51.493Z,10.09
2022-10-31T00:45:53.198Z,10.10
2022-10-31T00:48:55.220Z,10.10
2022-10-31T00:51:56.827Z,10.12
2022-10-31T00:54:58.429Z,10.08
2022-10-31T00:58:00.344Z,10.02
2022-10-31T01:01:02.304Z,10.00
2022-10-31T01:04:03.962Z,9.99
2022-10-31T01:07:07.987Z,9.98
2022-10-31T01:10:11.031Z,9.97
2022-10-31T01:13:12.604Z,9.91
2022-10-31T01:16:16.673Z,9.87
2022-10-31T01:19:18.125Z,9.87
2022-10-31T01:22:19.644Z,9.85
2022-10-31T01:25:21.176Z,9.76
2022-10-31T01:31:33.791Z,9.79
2022-10-31T01:34:35.305Z,9.77
2022-10-31T01:37:37.120Z,9.77
2022-10-31T01:40:38.627Z,9.73
2022-10-31T01:43:44.228Z,9.72
2022-10-31T01:46:49.345Z,9.74
2022-10-31T01:49:55.827Z,9.76
2022-10-31T01:52:58.639Z,9.78
2022-10-31T01:56:01.087Z,9.76
2022-10-31T01:59:06.203Z,9.77
2022-10-31T02:02:09.220Z,9.78
2022-10-31T02:05:15.633Z,9.79
2022-10-31T02:08:23.930Z,9.73
2022-10-31T02:11:26.438Z,9.75
2022-10-31T02:14:31.430Z,9.80
2022-10-31T02:17:34.075Z,9.82
2022-10-31T02:20:49.081Z,9.80
2022-10-31T02:23:59.309Z,9.79
2022-10-31T02:27:24.996Z,9.81
2022-10-31T02:30:51.790Z,9.79
2022-10-31T02:33:58.644Z,9.78
2022-10-31T02:37:09.357Z,9.78
2022-10-31T02:40:22.770Z,9.79
2022-10-31T02:44:04.805Z,9.78
2022-10-31T02:47:12.962Z,9.73
2022-10-31T02:50:25.098Z,9.75
2022-10-31T02:53:27.098Z,9.77
2022-10-31T02:56:28.642Z,9.77
2022-10-31T02:59:33.991Z,9.76
2022-10-31T03:03:14.186Z,9.73
2022-10-31T03:06:38.662Z,9.65
2022-10-31T03:10:05.781Z,9.62
2022-10-31T03:13:13.504Z,9.57
2022-10-31T03:16:28.526Z,9.58
2022-10-31T03:19:35.324Z,9.62
2022-10-31T03:22:40.607Z,9.63
2022-10-31T03:25:43.115Z,9.64
2022-10-31T03:28:49.779Z,9.59
2022-10-31T03:32:01.444Z,9.56
2022-10-31T03:35:06.205Z,9.49
2022-10-31T03:38:09.070Z,9.43
2022-10-31T03:41:19.614Z,9.47
2022-10-31T03:44:22.827Z,9.52
2022-10-31T03:47:33.308Z,9.56
2022-10-31T03:51:04.141Z,9.60
2022-10-31T03:54:26.188Z,9.64
2022-10-31T03:57:30.450Z,9.65
2022-10-31T04:00:34.805Z,9.65
2022-10-31T04:03:38.616Z,9.58
2022-10-31T04:06:45.136Z,9.58
2022-10-31T04:09:48.701Z,9.60
2022-10-31T04:12:59.916Z,9.63
2022-10-31T04:16:11.359Z,9.60
2022-10-31T04:19:16.185Z,9.64
2022-10-31T04:22:17.872Z,9.60
2022-10-31T04:25:19.374Z,9.58
2022-10-31T04:28:21.951Z,9.57
2022-10-31T04:31:23.534Z,9.52
2022-10-31T04:34:25.335Z,9.47
2022-10-31T04:37:26.932Z,9.53
2022-10-31T04:40:29.256Z,9.58
2022-10-31T04:43:49.448Z,9.57
2022-10-31T04:46:52.276Z,9.61
2022-10-31T04:49:53.779Z,9.62
2022-10-31T04:52:56.538Z,9.60
2022-10-31T04:56:02.133Z,9.56
2022-10-31T04:59:12.431Z,9.49
2022-10-31T05:02:22.305Z,9.45
2022-10-31T05:05:32.273Z,9.38
2022-10-31T05:08:36.213Z,9.34
2022-10-31T05:11:42.899Z,9.36
2022-10-31T05:14:59.218Z,9.37
2022-10-31T05:18:35.913Z,9.37
2022-10-31T05:21:55.609Z,9.37
2022-10-31T05:24:58.226Z,9.35
2022-10-31T05:28:00.219Z,9.36
2022-10-31T05:31:02.057Z,9.36
2022-10-31T05:34:03.776Z,9.30
2022-10-31T05:37:29.393Z,9.28
2022-10-31T05:40:31.206Z,9.31
2022-10-31T05:43:32.708Z,9.36
2022-10-31T05:46:35.547Z,9.41
2022-10-31T05:49:46.166Z,9.48
2022-10-31T05:53:19.775Z,9.49
2022-10-31T05:56:21.291Z,9.50
2022-10-31T05:59:23.002Z,9.51
2022-10-31T06:02:24.628Z,9.54
2022-10-31T06:05:50.599Z,9.57
2022-10-31T06:08:56.024Z,9.61
2022-10-31T06:11:57.971Z,9.68
2022-10-31T06:14:59.446Z,9.73
2022-10-31T06:18:03.878Z,9.77
2022-10-31T06:21:11.510Z,9.80
2022-10-31T06:24:15.985Z,9.81
2022-10-31T06:27:29.452Z,9.90
2022-10-31T06:30:32.745Z,9.93
2022-10-31T06:33:35.008Z,9.97
2022-10-31T06:36:37.081Z,10.02
2022-10-31T06:39:39.551Z,10.10
2022-10-31T06:42:41.354Z,10.15
2022-10-31T06:45:44.697Z,10.22
2022-10-31T06:49:12.426Z,10.29
2022-10-31T06:52:24.332Z,10.31
2022-10-31T06:55:27.306Z,10.42
2022-10-31T06:58:28.958Z,10.52
2022-10-31T07:01:34.878Z,10.63
2022-10-31T07:04:36.849Z,10.71
2022-10-31T07:07:38.881Z,10.79
2022-10-31T07:10:42.671Z,10.89
2022-10-31T07:13:45.006Z,11.00
2022-10-31T07:16:51.500Z,11.11
2022-10-31T07:19:58.320Z,11.17
2022-10-31T07:23:00.262Z,11.27
2022-10-31T07:26:03.065Z,11.36
2022-10-31T07:29:14.879Z,11.48
2022-10-31T07:32:16.503Z,11.62
2022-10-31T07:35:26.378Z,11.72
2022-10-31T07:38:36.739Z,11.84
2022-10-31T07:41:39.722Z,11.99
2022-10-31T07:44:41.220Z,12.09
2022-10-31T07:48:17.678Z,12.32
2022-10-31T07:51:38.942Z,12.50
2022-10-31T07:55:11.566Z,12.58
2022-10-31T07:58:15.207Z,12.71
2022-10-31T08:01:16.800Z,12.87
2022-10-31T08:04:27.416Z,12.99
2022-10-31T08:07:47.331Z,13.13
2022-10-31T08:10:55.843Z,13.24
2022-10-31T08:13:57.331Z,13.41
2022-10-31T08:16:59.064Z,13.55
2022-10-31T08:20:09.157Z,13.69
2022-10-31T08:23:18.075Z,13.84
2022-10-31T08:26:20.023Z,14.01
2022-10-31T08:29:21.634Z,14.16
2022-10-31T08:32:23.249Z,14.28
2022-10-31T08:35:27.892Z,14.39
2022-10-31T08:38:49.492Z,14.52
2022-10-31T08:41:56.255Z,14.61
2022-10-31T08:44:58.483Z,14.71
2022-10-31T08:48:05.969Z,14.78
2022-10-31T08:51:08.108Z,14.87
2022-10-31T08:54:09.734Z,14.99
2022-10-31T08:57:11.216Z,15.19
2022-10-31T09:00:16.845Z,15.34
2022-10-31T09:03:37.903Z,15.48
2022-10-31T09:06:46.389Z,15.63
2022-10-31T09:09:57.414Z,15.74
2022-10-31T09:13:00.723Z,15.87
2022-10-31T09:16:02.239Z,15.98
2022-10-31T09:19:08.689Z,16.13
2022-10-31T09:22:12.672Z,16.28
2022-10-31T09:25:14.838Z,16.43
2022-10-31T09:28:22.492Z,16.59
2022-10-31T09:31:24.125Z,16.75
2022-10-31T09:34:25.781Z,16.82
2022-10-31T09:37:47.725Z,16.97
2022-10-31T09:41:02.290Z,17.09
2022-10-31T09:44:47.639Z,17.16
2022-10-31T09:47:58.553Z,17.19
2022-10-31T09:51:11.159Z,17.23
2022-10-31T09:54:48.401Z,17.25
2022-10-31T09:57:50.063Z,17.29
2022-10-31T10:00:54.470Z,17.27
2022-10-31T10:04:02.244Z,17.36
2022-10-31T10:07:50.371Z,17.66
2022-10-31T10:11:45.015Z,17.89
2022-10-31T10:15:27.666Z,18.08
2022-10-31T10:18:39.255Z,18.13
2022-10-31T10:21:58.917Z,18.15
2022-10-31T10:25:14.927Z,18.17
2022-10-31T10:28:39.298Z,18.08
2022-10-31T10:31:46.819Z,17.97
2022-10-31T10:35:18.162Z,17.64
2022-10-31T10:38:43.985Z,17.42
2022-10-31T10:42:10.286Z,17.24
2022-10-31T10:45:35.602Z,17.02
2022-10-31T10:48:54.817Z,16.91
2022-10-31T10:52:40.762Z,16.80
2022-10-31T10:55:51.453Z,16.61
2022-10-31T10:58:55.514Z,16.40
2022-10-31T11:01:57.107Z,16.38
2022-10-31T11:05:01.508Z,16.39
2022-10-31T11:08:04.501Z,16.44
2022-10-31T11:11:31.936Z,16.51
2022-10-31T11:14:43.304Z,16.71
2022-10-31T11:17:50.467Z,16.97
2022-10-31T11:20:55.408Z,17.33
2022-10-31T11:24:12.402Z,17.83
2022-10-31T11:27:22.093Z,18.19
2022-10-31T11:30:23.657Z,18.36
2022-10-31T11:33:38.735Z,18.50
2022-10-31T11:36:44.780Z,18.61
2022-10-31T11:39:54.354Z,18.81
2022-10-31T11:42:59.801Z,19.13
2022-10-31T11:46:12.870Z,19.48
2022-10-31T11:49:44.834Z,19.49
2022-10-31T11:52:46.663Z,19.33
2022-10-31T11:55:49.143Z,19.28
2022-10-31T11:59:15.739Z,19.06
2022-10-31T12:02:20.218Z,19.03
2022-10-31T12:05:30.258Z,19.09
2022-10-31T12:08:36.369Z,19.09
2022-10-31T12:12:12.232Z,18.90
2022-10-31T12:15:34.501Z,18.99
2022-10-31T12:19:02.496Z,19.18
2022-10-31T12:22:25.763Z,19.10
2022-10-31T12:25:46.456Z,19.07
2022-10-31T12:29:23.308Z,19.11
2022-10-31T12:33:03.569Z,19.14
2022-10-31T12:36:21.440Z,19.18
2022-10-31T12:39:31.522Z,19.22
2022-10-31T12:42:36.470Z,19.25
2022-10-31T12:45:52.787Z,19.18
2022-10-31T12:49:13.285Z,19.07
2022-10-31T12:52:20.772Z,18.99
2022-10-31T12:55:32.698Z,18.96
2022-10-31T12:58:48.595Z,19.04
2022-10-31T13:02:17.181Z,19.15
2022-10-31T13:05:23.479Z,19.32
2022-10-31T13:08:36.746Z,19.50
2022-10-31T13:11:43.488Z,19.64
2022-10-31T13:14:54.301Z,19.83
2022-10-31T13:18:00.390Z,19.76
2022-10-31T13:21:09.389Z,19.64
2022-10-31T13:24:17.430Z,19.63
2022-10-31T13:27:25.864Z,19.65
2022-10-31T13:30:39.566Z,19.64
2022-10-31T13:33:47.561Z,19.66
2022-10-31T13:37:32.007Z,19.65
2022-10-31T13:40:39.330Z,19.68
2022-10-31T13:43:59.498Z,19.61
2022-10-31T13:47:01.109Z,19.72
2022-10-31T13:50:26.266Z,19.95
2022-10-31T13:53:58.954Z,20.20
2022-10-31T13:57:00.975Z,20.52
2022-10-31T14:00:22.108Z,20.73
2022-10-31T14:03:57.573Z,20.67
2022-10-31T14:07:08.696Z,20.30
2022-10-31T14:10:31.178Z,19.93
2022-10-31T14:13:42.532Z,19.75
2022-10-31T14:16:46.670Z,19.82
2022-10-31T14:20:26.855Z,19.84
2022-10-31T14:23:31.810Z,19.59
2022-10-31T14:26:35.691Z,19.56
2022-10-31T14:29:37.306Z,19.53
2022-10-31T14:32:39.847Z,19.49
2022-10-31T14:35:56.558Z,19.54
2022-10-31T14:39:49.448Z,19.41
2022-10-31T14:43:20.064Z,19.36
2022-10-31T14:46:51.497Z,20.24
2022-10-31T14:50:14.534Z,20.99
2022-10-31T14:53:21.907Z,21.72
2022-10-31T14:56:29.933Z,21.01
2022-10-31T14:59:36.169Z,20.36
2022-10-31T15:02:55.756Z,19.87
2022-10-31T15:06:03.064Z,19.54
2022-10-31T15:09:04.719Z,19.44
2022-10-31T15:12:29.398Z,19.17
2022-10-31T15:15:32.607Z,18.96
2022-10-31T15:18:34.151Z,18.69
2022-10-31T15:21:47.275Z,18.32
2022-10-31T15:24:49.886Z,18.10
2022-10-31T15:27:53.261Z,17.89
2022-10-31T15:30:56.812Z,17.77
2022-10-31T15:34:06.379Z,17.55
2022-10-31T15:37:14.642Z,17.30
2022-10-31T15:40:19.647Z,17.05
2022-10-31T15:43:21.335Z,16.97
2022-10-31T15:46:28.170Z,16.88
2022-10-31T15:49:38.353Z,16.70
2022-10-31T15:52:48.021Z,16.59
2022-10-31T15:56:02.477Z,16.48
2022-10-31T15:59:04.099Z,16.45
2022-10-31T16:02:11.662Z,16.34
2022-10-31T16:05:20.000Z,16.22
2022-10-31T16:08:30.660Z,16.10
2022-10-31T16:11:37.999Z,15.89
2022-10-31T16:14:42.246Z,15.82
2022-10-31T16:17:47.369Z,15.64
2022-10-31T16:20:53.438Z,15.47
2022-10-31T16:24:05.784Z,15.39
2022-10-31T16:27:18.944Z,15.29
2022-10-31T16:30:48.006Z,15.20
2022-10-31T16:33:50.140Z,15.11
2022-10-31T16:36:51.876Z,15.05
2022-10-31T16:39:53.464Z,14.98
2022-10-31T16:42:58.522Z,14.91
2022-10-31T16:46:08.888Z,14.82
2022-10-31T16:49:10.810Z,14.73
2022-10-31T16:52:12.341Z,14.59
2022-10-31T16:55:15.613Z,14.59
2022-10-31T16:58:24.885Z,14.55
2022-10-31T17:01:29.487Z,14.52
2022-10-31T17:04:31.225Z,14.41
2022-10-31T17:07:32.833Z,14.31
2022-10-31T17:10:34.902Z,14.23
2022-10-31T17:13:36.426Z,14.17
2022-10-31T17:16:38.154Z,14.16
2022-10-31T17:19:39.646Z,14.19
2022-10-31T17:22:41.325Z,14.17
2022-10-31T17:25:44.015Z,14.10
2022-10-31T17:28:46.316Z,13.99
2022-10-31T17:31:47.910Z,13.91
2022-10-31T17:34:49.450Z,13.84
2022-10-31T17:37:51.082Z,13.75
2022-10-31T17:40:52.639Z,13.67
2022-10-31T17:43:58.086Z,13.60
2022-10-31T17:46:59.620Z,13.52
2022-10-31T17:50:01.501Z,13.45
2022-10-31T17:53:03.527Z,13.42
2022-10-31T17:56:07.519Z,13.36
2022-10-31T17:59:09.243Z,13.34
2022-10-31T18:02:11.843Z,13.30
2022-10-31T18:05:13.878Z,13.25
2022-10-31T18:08:15.365Z,13.13
2022-10-31T18:11:20.592Z,13.07
2022-10-31T18:14:22.265Z,13.06
2022-10-31T18:17:24.295Z,13.04
2022-10-31T18:20:25.808Z,13.01
2022-10-31T18:23:27.380Z,13.03
2022-10-31T18:26:29.182Z,13.04
2022-10-31T18:29:30.680Z,13.05
2022-10-31T18:32:32.258Z,13.00
2022-10-31T18:35:37.775Z,12.95
2022-10-31T18:38:40.986Z,12.90
2022-10-31T18:41:42.793Z,12.78
2022-10-31T18:44:44.321Z,12.74
2022-10-31T18:47:45.850Z,12.68
2022-10-31T18:50:47.401Z,12.67
2022-10-31T18:53:53.684Z,12.67
2022-10-31T18:56:55.930Z,12.64
2022-10-31T18:59:57.531Z,12.58
2022-10-31T19:02:59.291Z,12.46
2022-10-31T19:06:07.465Z,12.35
2022-10-31T19:09:09.822Z,12.27
2022-10-31T19:12:11.752Z,12.19
2022-10-31T19:15:13.295Z,12.22
2022-10-31T19:18:14.855Z,12.21
2022-10-31T19:21:18.073Z,12.22
2022-10-31T19:24:19.635Z,12.21
2022-10-31T19:27:21.279Z,12.23
2022-10-31T19:30:22.978Z,12.22
2022-10-31T19:33:34.870Z,12.24
2022-10-31T19:36:38.056Z,12.25
2022-10-31T19:39:43.985Z,12.26
2022-10-31T19:42:48.141Z,12.20
2022-10-31T19:46:00.775Z,12.00
2022-10-31T19:49:02.335Z,11.96
2022-10-31T19:52:04.132Z,11.92
2022-10-31T19:55:06.015Z,11.92
2022-10-31T19:58:08.081Z,11.93
2022-10-31T20:01:15.032Z,11.89
2022-10-31T20:04:16.590Z,11.86
2022-10-31T20:07:20.878Z,11.85
2022-10-31T20:10:22.610Z,11.80
2022-10-31T20:13:24.535Z,11.78
2022-10-31T20:16:27.317Z,11.75
2022-10-31T20:19:28.967Z,11.67
2022-10-31T20:22:30.604Z,11.65
2022-10-31T20:25:33.189Z,11.58
2022-10-31T20:28:37.609Z,11.59
2022-10-31T20:31:44.314Z,11.56
2022-10-31T20:34:45.906Z,11.60
2022-10-31T20:37:47.371Z,11.59
2022-10-31T20:40:48.877Z,11.57
2022-10-31T20:43:50.395Z,11.57
2022-10-31T20:46:52.918Z,11.61
2022-10-31T20:49:54.494Z,11.59
2022-10-31T20:52:56.599Z,11.59
2022-10-31T20:56:15.754Z,11.55
2022-10-31T20:59:19.353Z,11.57
2022-10-31T21:02:20.983Z,11.53
2022-10-31T21:05:22.531Z,11.56
2022-10-31T21:08:24.865Z,11.55
2022-10-31T21:11:29.290Z,11.55
2022-10-31T21:14:30.804Z,11.56
2022-10-31T21:17:32.283Z,11.49
2022-10-31T21:20:33.828Z,11.51
2022-10-31T21:23:35.527Z,11.50
2022-10-31T21:26:41.933Z,11.50
2022-10-31T21:29:43.558Z,11.48
2022-10-31T21:32:45.047Z,11.49
2022-10-31T21:35:52.847Z,11.49
2022-10-31T21:38:55.642Z,11.47
2022-10-31T21:41:57.195Z,11.50
2022-10-31T21:44:58.688Z,11.52
2022-10-31T21:48:02.780Z,11.59
2022-10-31T21:51:05.237Z,11.53
2022-10-31T21:54:25.142Z,11.57
2022-10-31T21:57:26.689Z,11.58
2022-10-31T22:00:28.153Z,11.64
2022-10-31T22:03:29.747Z,11.68
2022-10-31T22:06:31.381Z,11.67
2022-10-31T22:09:33.132Z,11.70
2022-10-31T22:12:34.583Z,11.73
2022-10-31T22:15:36.074Z,11.74
2022-10-31T22:18:38.741Z,11.72
2022-10-31T22:21:43.049Z,11.71
2022-10-31T22:24:44.571Z,11.70
2022-10-31T22:27:46.095Z,11.72
2022-10-31T22:30:47.599Z,11.72
2022-10-31T22:33:50.238Z,11.71
2022-10-31T22:36:53.970Z,11.72
2022-10-31T22:39:55.427Z,11.69
2022-10-31T22:42:56.943Z,11.62
2022-10-31T22:46:02.545Z,11.67
2022-10-31T22:49:07.002Z,11.70
2022-10-31T22:52:08.704Z,11.74
2022-10-31T22:55:10.229Z,11.76
2022-10-31T22:58:12.123Z,11.73
2022-10-31T23:01:16.757Z,11.77
2022-10-31T23:04:18.432Z,11.74
2022-10-31T23:07:23.104Z,11.72
2022-10-31T23:10:33.059Z,11.69
2022-10-31T23:13:53.280Z,11.67
2022-10-31T23:16:56.516Z,11.62
2022-10-31T23:19:58.142Z,11.59
2022-10-31T23:22:59.916Z,11.58
2022-10-31T23:26:20.623Z,11.55
2022-10-31T23:29:22.184Z,11.55
2022-10-31T23:32:27.634Z,11.55
2022-10-31T23:35:29.172Z,11.55
2022-10-31T23:38:30.703Z,11.54
2022-10-31T23:41:32.211Z,11.55
2022-10-31T23:44:33.728Z,11.56
2022-10-31T23:47:38.339Z,11.56
2022-10-31T23:50:42.222Z,11.59
2022-10-31T23:53:45.538Z,11.58
2022-10-31T23:56:47.073Z,11.60
2022-10-31T23:59:48.547Z,11.66
